Time;durP1;ratioP1;P1;durP2;ratioP2;P2;SDS_P1;SDS_P2;PMS_P1;PMS_P2;Temp;Humidity;BMP_temperature;BMP_pressure;BME280_temperature;BME280_humidity;BME280_pressure;Samples;Min_cycle;Max_cycle;Signal;HPM_P1;HPM_P2
2023/06/16 00:00:12;;;;;;;4.18;3.85;;;14.80;1.00;;;;;;5024063;28;20251;-76
2023/06/16 00:02:43;;;;;;;4.35;3.95;;;14.90;1.00;;;;;;5023799;28;20699;-75
2023/06/16 00:05:10;;;;;;;3.83;3.53;;;14.70;1.00;;;;;;5024116;28;20237;-76
2023/06/16 00:07:36;;;;;;;4.40;4.00;;;14.70;1.00;;;;;;5024406;28;20179;-74
2023/06/16 00:10:04;;;;;;;3.72;3.38;;;14.70;1.00;;;;;;5024241;28;20194;-76
2023/06/16 00:12:30;;;;;;;4.57;4.18;;;14.70;1.00;;;;;;5023457;28;20274;-76
2023/06/16 00:14:56;;;;;;;5.80;4.03;;;14.60;1.00;;;;;;5024063;28;20262;-74
2023/06/16 00:17:23;;;;;;;5.18;4.38;;;14.60;1.00;;;;;;5023932;28;20257;-74
2023/06/16 00:19:49;;;;;;;5.18;3.90;;;14.30;1.00;;;;;;5015694;28;20646;-75
2023/06/16 00:22:15;;;;;;;4.88;4.43;;;14.40;1.00;;;;;;5023364;28;20248;-75
2023/06/16 00:24:41;;;;;;;4.15;3.75;;;14.30;1.00;;;;;;5023842;28;20713;-75
2023/06/16 00:27:07;;;;;;;4.75;4.35;;;14.20;1.00;;;;;;5023469;28;20195;-75
2023/06/16 00:29:32;;;;;;;4.30;3.90;;;14.30;1.00;;;;;;5024016;28;20184;-73
2023/06/16 00:31:58;;;;;;;5.22;4.80;;;14.30;1.00;;;;;;5022887;28;20266;-75
2023/06/16 00:34:23;;;;;;;4.30;3.95;;;14.10;1.00;;;;;;5026644;28;20202;-75
2023/06/16 00:36:49;;;;;;;4.78;4.18;;;14.10;1.00;;;;;;5027372;28;20207;-75
2023/06/16 00:39:15;;;;;;;6.18;4.85;;;14.20;1.00;;;;;;5027744;28;20268;-75
2023/06/16 00:41:40;;;;;;;4.88;4.38;;;14.20;1.00;;;;;;5026770;28;20187;-77
2023/06/16 00:44:06;;;;;;;4.90;4.50;;;14.20;1.00;;;;;;5026841;28;20187;-77
2023/06/16 00:46:36;;;;;;;5.30;4.50;;;14.20;1.00;;;;;;5026950;28;20276;-76
2023/06/16 00:49:02;;;;;;;5.07;4.57;;;14.20;1.00;;;;;;5027334;28;20244;-74
2023/06/16 00:51:30;;;;;;;4.53;4.07;;;14.10;1.00;;;;;;5009074;28;20189;-75
2023/06/16 00:53:57;;;;;;;4.68;4.28;;;14.20;1.00;;;;;;5027060;28;20201;-74
2023/06/16 00:56:23;;;;;;;5.78;5.18;;;14.20;1.00;;;;;;5026948;28;20846;-76
2023/06/16 00:58:51;;;;;;;5.18;4.10;;;14.00;1.00;;;;;;5027402;28;20213;-75
2023/06/16 01:01:17;;;;;;;4.70;4.30;;;14.00;1.00;;;;;;5026528;28;20179;-76
2023/06/16 01:03:44;;;;;;;4.50;4.10;;;14.00;1.00;;;;;;5027081;28;20179;-75
2023/06/16 01:06:28;;;;;;;5.60;4.13;;;14.00;1.00;;;;;;5026706;28;20198;-75
2023/06/16 01:09:19;;;;;;;5.50;4.45;;;13.90;1.00;;;;;;5026502;28;20237;-75
2023/06/16 01:12:11;;;;;;;4.38;3.95;;;13.80;1.00;;;;;;5025549;28;20187;-75
2023/06/16 01:14:50;;;;;;;4.82;4.35;;;13.80;1.00;;;;;;5026806;28;20182;-74
2023/06/16 01:17:21;;;;;;;4.80;3.90;;;13.80;1.00;;;;;;5026608;28;20210;-74
2023/06/16 01:19:53;;;;;;;5.40;4.15;;;13.80;1.00;;;;;;5026740;28;20187;-75
2023/06/16 01:22:36;;;;;;;5.00;4.50;;;13.80;1.00;;;;;;5026052;28;20206;-75
2023/06/16 01:25:04;;;;;;;5.22;4.53;;;13.80;1.00;;;;;;5025935;28;20621;-75
2023/06/16 01:27:32;;;;;;;4.97;4.47;;;13.70;1.00;;;;;;5026347;28;20194;-77
2023/06/16 01:30:00;;;;;;;5.18;4.68;;;13.70;1.00;;;;;;5026786;28;20226;-76
2023/06/16 01:32:27;;;;;;;5.55;4.68;;;13.60;1.00;;;;;;5026145;28;20642;-75
2023/06/16 01:34:53;;;;;;;5.13;4.70;;;13.70;1.00;;;;;;5026548;28;20191;-75
2023/06/16 01:37:21;;;;;;;5.90;5.30;;;13.70;1.00;;;;;;5026605;28;20211;-77
2023/06/16 01:39:48;;;;;;;4.95;4.45;;;13.60;1.00;;;;;;5026301;28;20295;-76
2023/06/16 01:42:15;;;;;;;6.70;4.68;;;13.60;1.00;;;;;;5025318;28;20183;-76
2023/06/16 01:44:42;;;;;;;5.28;4.78;;;13.60;1.00;;;;;;5023579;28;20171;-76
2023/06/16 01:47:08;;;;;;;5.07;4.57;;;13.60;1.00;;;;;;5026075;28;20195;-75
2023/06/16 01:49:34;;;;;;;5.63;4.75;;;13.70;1.00;;;;;;5026430;28;20174;-77
2023/06/16 01:52:00;;;;;;;5.30;4.80;;;13.60;1.00;;;;;;5025612;28;20191;-76
2023/06/16 01:54:26;;;;;;;5.30;4.80;;;13.60;1.00;;;;;;5026193;28;20172;-75
2023/06/16 01:56:52;;;;;;;4.50;4.10;;;13.60;1.00;;;;;;5025709;28;20207;-76
2023/06/16 01:59:18;;;;;;;5.15;4.65;;;13.60;1.00;;;;;;5025995;28;20622;-75
2023/06/16 02:01:51;;;;;;;7.82;5.10;;;13.60;1.00;;;;;;5025875;28;20194;-75
2023/06/16 02:04:23;;;;;;;4.97;4.50;;;13.70;1.00;;;;;;5025883;28;20588;-75
2023/06/16 02:07:07;;;;;;;5.70;5.10;;;13.70;1.00;;;;;;5025380;28;20226;-76
2023/06/16 02:09:35;;;;;;;5.35;4.82;;;13.60;1.00;;;;;;5025714;28;20599;-75
2023/06/16 02:12:02;;;;;;;5.55;5.00;;;13.70;1.00;;;;;;5019522;28;20618;-76
2023/06/16 02:14:28;;;;;;;5.38;4.88;;;13.70;1.00;;;;;;5025710;28;20333;-75
2023/06/16 02:16:54;;;;;;;5.28;4.88;;;13.80;1.00;;;;;;5025287;28;20195;-76
2023/06/16 02:19:19;;;;;;;5.07;4.57;;;13.80;1.00;;;;;;5025394;28;20293;-76
2023/06/16 02:21:45;;;;;;;6.75;4.47;;;13.80;1.00;;;;;;5024913;28;20286;-75
2023/06/16 02:24:11;;;;;;;5.28;4.78;;;14.00;1.00;;;;;;5025132;28;20183;-76
2023/06/16 02:26:37;;;;;;;5.82;5.30;;;13.90;1.00;;;;;;5025238;28;20256;-75
2023/06/16 02:29:03;;;;;;;6.05;5.45;;;13.80;1.00;;;;;;5024785;28;20221;-77
2023/06/16 02:31:29;;;;;;;5.88;5.28;;;13.90;1.00;;;;;;5024761;28;20186;-76
2023/06/16 02:33:55;;;;;;;5.65;5.15;;;13.80;1.00;;;;;;5024839;28;20202;-76
2023/06/16 02:36:21;;;;;;;6.03;5.43;;;13.90;1.00;;;;;;5024979;28;20206;-75
2023/06/16 02:38:47;;;;;;;7.57;5.57;;;13.80;1.00;;;;;;5024892;28;20217;-76
2023/06/16 02:41:13;;;;;;;6.07;5.47;;;13.80;1.00;;;;;;5024949;28;20672;-75
2023/06/16 02:43:39;;;;;;;5.63;5.13;;;13.80;1.00;;;;;;5024313;28;20183;-74
2023/06/16 02:46:05;;;;;;;5.53;5.03;;;13.90;1.00;;;;;;5024786;28;20289;-75
2023/06/16 02:48:31;;;;;;;6.97;5.43;;;13.90;1.00;;;;;;5025297;28;20233;-76
2023/06/16 02:50:56;;;;;;;6.40;5.80;;;13.90;1.00;;;;;;5024739;28;20195;-75
2023/06/16 02:53:24;;;;;;;6.28;5.68;;;13.90;1.00;;;;;;5024517;28;20198;-76
2023/06/16 02:55:51;;;;;;;5.40;4.90;;;13.90;1.00;;;;;;5016900;28;20257;-75
2023/06/16 02:58:17;;;;;;;6.47;5.57;;;13.90;1.00;;;;;;5024441;28;20203;-75
2023/06/16 03:00:43;;;;;;;6.63;5.85;;;13.90;1.00;;;;;;5025256;28;20522;-75
2023/06/16 03:03:09;;;;;;;8.10;5.30;;;13.90;1.00;;;;;;5024481;28;20198;-75
2023/06/16 03:05:36;;;;;;;5.78;5.28;;;13.90;1.00;;;;;;5024488;28;20573;-75
2023/06/16 03:08:02;;;;;;;6.03;5.18;;;13.90;1.00;;;;;;5024309;28;20202;-75
2023/06/16 03:10:27;;;;;;;6.28;5.68;;;13.90;1.00;;;;;;5024538;28;20574;-75
2023/06/16 03:12:53;;;;;;;5.70;5.18;;;13.80;1.00;;;;;;5023970;28;20183;-76
2023/06/16 03:15:19;;;;;;;7.05;5.72;;;13.70;1.00;;;;;;5024462;28;20190;-75
2023/06/16 03:17:47;;;;;;;5.93;5.15;;;13.80;1.00;;;;;;5006802;28;20218;-75
2023/06/16 03:20:12;;;;;;;6.00;5.15;;;13.70;1.00;;;;;;5024520;28;20175;-75
2023/06/16 03:22:38;;;;;;;6.03;5.50;;;13.70;1.00;;;;;;5023527;28;20197;-75
2023/06/16 03:25:04;;;;;;;6.13;5.50;;;13.80;1.00;;;;;;5024416;28;20647;-74
2023/06/16 03:27:30;;;;;;;6.25;5.75;;;13.80;1.00;;;;;;5024113;28;20202;-75
2023/06/16 03:29:56;;;;;;;7.65;5.85;;;13.80;1.00;;;;;;5024668;28;20926;-75
2023/06/16 03:32:22;;;;;;;6.78;5.20;;;13.80;1.00;;;;;;5023634;28;20178;-74
2023/06/16 03:34:48;;;;;;;6.53;5.80;;;13.80;1.00;;;;;;5019081;28;20252;-76
2023/06/16 03:37:14;;;;;;;5.80;5.30;;;13.90;1.00;;;;;;5023563;28;20198;-75
2023/06/16 03:39:40;;;;;;;6.20;5.60;;;13.90;1.00;;;;;;5023812;28;20187;-77
2023/06/16 03:42:06;;;;;;;7.13;5.97;;;13.90;1.00;;;;;;5023686;28;20205;-75
2023/06/16 03:44:32;;;;;;;5.68;5.15;;;14.00;1.00;;;;;;5023835;28;20179;-74
2023/06/16 03:46:58;;;;;;;6.47;5.25;;;14.10;1.00;;;;;;5023806;28;20206;-75
2023/06/16 03:49:23;;;;;;;6.40;5.80;;;14.10;1.00;;;;;;5024055;28;20201;-76
2023/06/16 03:51:49;;;;;;;6.30;5.63;;;14.10;1.00;;;;;;5023219;28;20191;-74
2023/06/16 03:54:17;;;;;;;7.40;5.85;;;14.10;1.00;;;;;;5023967;28;20178;-76
2023/06/16 03:56:43;;;;;;;7.53;6.72;;;14.20;1.00;;;;;;5023948;28;20210;-74
2023/06/16 03:59:09;;;;;;;8.05;6.55;;;14.30;1.00;;;;;;5023995;28;20541;-74
2023/06/16 04:01:36;;;;;;;6.57;5.95;;;14.30;1.00;;;;;;5023258;28;20179;-77
2023/06/16 04:04:03;;;;;;;7.00;6.30;;;14.30;1.00;;;;;;5023704;28;20179;-74
2023/06/16 04:06:28;;;;;;;6.47;5.90;;;14.40;1.00;;;;;;5023704;28;20577;-75
2023/06/16 04:08:56;;;;;;;6.60;6.00;;;14.40;1.00;;;;;;5026128;28;20207;-74
2023/06/16 04:11:22;;;;;;;9.45;6.30;;;14.40;1.00;;;;;;5027985;28;20273;-76
2023/06/16 04:13:48;;;;;;;6.18;5.47;;;14.40;1.00;;;;;;5027437;28;20273;-75
2023/06/16 04:16:14;;;;;;;5.45;4.95;;;14.40;1.00;;;;;;5027209;28;20743;-76
2023/06/16 04:18:40;;;;;;;6.60;6.00;;;14.40;1.00;;;;;;5027628;28;20202;-75
2023/06/16 04:21:05;;;;;;;6.10;5.60;;;14.50;1.00;;;;;;5027706;28;20245;-75
2023/06/16 04:23:32;;;;;;;7.38;6.68;;;14.50;1.00;;;;;;5026931;28;20175;-76
2023/06/16 04:25:58;;;;;;;6.68;5.78;;;14.50;1.00;;;;;;5027566;28;20289;-75
2023/06/16 04:28:24;;;;;;;7.07;6.20;;;14.50;1.00;;;;;;5027685;28;20270;-75
2023/06/16 04:30:50;;;;;;;6.50;5.90;;;14.60;1.00;;;;;;5027555;28;20191;-75
2023/06/16 04:33:16;;;;;;;8.57;6.22;;;14.50;1.00;;;;;;5026819;28;20191;-75
2023/06/16 04:35:42;;;;;;;6.30;5.80;;;14.60;1.00;;;;;;5027399;28;20198;-75
2023/06/16 04:38:09;;;;;;;6.90;6.30;;;14.50;1.00;;;;;;5009615;28;20684;-75
2023/06/16 04:40:36;;;;;;;6.95;6.35;;;14.50;1.00;;;;;;5027446;28;20233;-76
2023/06/16 04:43:02;;;;;;;6.70;6.10;;;14.60;2.30;;;;;;5026757;28;20233;-75
2023/06/16 04:45:28;;;;;;;6.57;5.93;;;14.70;1.00;;;;;;5026854;28;20191;-75
2023/06/16 04:47:54;;;;;;;10.77;6.32;;;14.70;1.00;;;;;;5027150;28;20187;-74
2023/06/16 04:50:19;;;;;;;7.30;6.60;;;14.70;1.00;;;;;;5027208;28;20183;-76
2023/06/16 04:52:47;;;;;;;6.45;5.95;;;14.70;1.00;;;;;;5026779;28;20662;-75
2023/06/16 04:55:16;;;;;;;7.00;5.88;;;14.80;1.00;;;;;;5027310;28;20182;-75
2023/06/16 04:57:43;;;;;;;7.90;7.10;;;14.70;1.00;;;;;;5027052;28;20782;-74
2023/06/16 05:00:12;;;;;;;7.93;6.68;;;14.70;1.00;;;;;;5027227;28;20191;-74
2023/06/16 05:02:38;;;;;;;6.68;6.07;;;14.80;1.00;;;;;;5026755;28;20175;-76
2023/06/16 05:05:05;;;;;;;9.27;6.70;;;14.80;1.00;;;;;;5026968;28;20187;-75
2023/06/16 05:07:31;;;;;;;7.65;6.85;;;14.80;1.00;;;;;;5026418;28;20215;-76
2023/06/16 05:09:57;;;;;;;7.43;6.65;;;14.80;1.00;;;;;;5026773;28;20183;-76
2023/06/16 05:12:25;;;;;;;7.63;6.38;;;14.80;1.00;;;;;;5025668;28;20175;-75
2023/06/16 05:14:52;;;;;;;7.30;6.70;;;15.00;1.00;;;;;;5024667;28;20185;-76
2023/06/16 05:17:18;;;;;;;7.15;6.55;;;14.80;1.00;;;;;;5025671;28;20685;-76
2023/06/16 05:19:43;;;;;;;7.47;6.72;;;14.70;1.00;;;;;;5025324;28;20288;-73
2023/06/16 05:22:09;;;;;;;7.40;6.13;;;14.80;1.00;;;;;;5007650;28;20413;-74
2023/06/16 05:24:35;;;;;;;8.50;6.25;;;14.80;1.00;;;;;;5026616;28;20925;-74
2023/06/16 05:27:00;;;;;;;8.45;7.07;;;14.70;77.90;;;;;;5026253;28;20203;-73
2023/06/16 05:29:26;;;;;;;7.30;6.53;;;14.80;99.90;;;;;;5026525;28;20213;-73
2023/06/16 05:31:51;;;;;;;7.40;6.55;;;14.80;99.90;;;;;;5024814;28;20186;-73
2023/06/16 05:34:17;;;;;;;8.13;6.97;;;14.80;59.00;;;;;;5026055;28;20664;-74
2023/06/16 05:36:43;;;;;;;7.90;6.68;;;14.80;99.90;;;;;;5025674;28;20207;-73
2023/06/16 05:39:11;;;;;;;7.95;7.15;;;14.80;99.90;;;;;;5025986;28;20224;-72
2023/06/16 05:41:37;;;;;;;7.53;6.93;;;14.80;99.90;;;;;;5025893;28;20175;-72
2023/06/16 05:44:03;;;;;;;9.77;6.97;;;14.80;99.90;;;;;;5025210;28;20198;-71
2023/06/16 05:46:28;;;;;;;8.13;7.32;;;14.90;99.90;;;;;;5025566;28;20203;-73
2023/06/16 05:48:54;;;;;;;9.45;7.53;;;14.90;99.90;;;;;;5025851;28;20581;-72
2023/06/16 05:51:20;;;;;;;8.25;7.43;;;15.00;99.90;;;;;;5025943;28;20179;-73
2023/06/16 05:53:46;;;;;;;8.07;7.35;;;14.90;99.90;;;;;;5007202;28;20526;-74
2023/06/16 05:56:11;;;;;;;8.32;7.53;;;15.00;99.90;;;;;;5025712;28;20686;-73
2023/06/16 05:58:37;;;;;;;6.93;6.20;;;15.10;99.90;;;;;;5024816;28;20685;-74
2023/06/16 06:01:06;;;;;;;8.00;7.22;;;15.00;99.90;;;;;;5020352;28;20179;-73
2023/06/16 06:03:32;;;;;;;8.27;7.57;;;15.10;99.90;;;;;;5023758;28;20189;-72
2023/06/16 06:05:58;;;;;;;8.50;7.65;;;15.20;99.90;;;;;;5025451;28;21352;-75
2023/06/16 06:08:27;;;;;;;8.57;7.78;;;15.20;99.90;;;;;;5025795;28;20203;-74
2023/06/16 06:10:53;;;;;;;8.05;7.25;;;15.30;99.90;;;;;;5025315;28;20183;-75
2023/06/16 06:13:19;;;;;;;8.65;7.80;;;15.30;99.90;;;;;;5025077;28;20241;-73
2023/06/16 06:15:46;;;;;;;8.52;7.72;;;15.40;99.90;;;;;;5024973;28;20211;-74
2023/06/16 06:18:12;;;;;;;9.00;7.45;;;15.50;99.90;;;;;;5007139;28;20767;-74
2023/06/16 06:20:39;;;;;;;9.60;7.32;;;15.60;99.90;;;;;;5024984;28;20530;-73
2023/06/16 06:23:05;;;;;;;7.68;7.07;;;15.60;99.90;;;;;;5024435;28;20183;-72
2023/06/16 06:25:31;;;;;;;9.05;7.30;;;15.70;99.90;;;;;;5025079;28;20198;-73
2023/06/16 06:27:57;;;;;;;8.93;7.50;;;16.00;99.90;;;;;;5025018;28;20240;-73
2023/06/16 06:30:24;;;;;;;10.95;7.20;;;16.30;99.90;;;;;;5024531;28;20545;-75
2023/06/16 06:32:50;;;;;;;7.78;7.07;;;16.60;99.90;;;;;;5016061;28;20590;-74
2023/06/16 06:35:16;;;;;;;7.55;6.85;;;16.80;29.20;;;;;;5023156;28;20195;-76
2023/06/16 06:37:42;;;;;;;7.32;6.72;;;16.90;1.00;;;;;;5020319;28;20953;-76
2023/06/16 06:40:09;;;;;;;6.60;5.88;;;16.90;1.00;;;;;;5022467;28;20183;-74
2023/06/16 06:42:34;;;;;;;6.88;6.07;;;17.00;1.00;;;;;;5022635;28;20229;-75
2023/06/16 06:45:01;;;;;;;7.50;6.47;;;17.50;1.00;;;;;;5022767;28;20215;-77
2023/06/16 06:47:27;;;;;;;6.65;6.05;;;18.10;1.00;;;;;;5022321;28;20241;-75
2023/06/16 06:49:54;;;;;;;8.23;6.80;;;18.60;1.00;;;;;;5022555;28;20194;-76
2023/06/16 06:52:20;;;;;;;6.68;5.90;;;18.80;1.00;;;;;;5023086;28;20541;-76
2023/06/16 06:54:45;;;;;;;7.57;6.93;;;18.60;1.00;;;;;;5024425;28;20179;-74
2023/06/16 06:57:12;;;;;;;7.60;6.90;;;18.30;1.00;;;;;;5024208;28;20696;-76
2023/06/16 06:59:40;;;;;;;7.63;6.70;;;18.00;1.00;;;;;;5023953;28;20211;-74
2023/06/16 07:02:06;;;;;;;7.07;6.38;;;18.00;1.00;;;;;;5024085;28;20658;-74
2023/06/16 07:04:32;;;;;;;7.72;6.30;;;18.10;1.00;;;;;;5024426;28;20183;-75
2023/06/16 07:06:58;;;;;;;8.27;6.50;;;18.40;1.00;;;;;;5024360;28;20213;-73
2023/06/16 07:09:23;;;;;;;6.30;5.80;;;18.70;1.00;;;;;;5022873;28;20234;-74
2023/06/16 07:11:49;;;;;;;6.60;5.80;;;19.00;1.00;;;;;;5021666;28;20201;-75
2023/06/16 07:27:50;;;;;;;9.52;5.95;;;18.30;1.00;;;;;;5034008;28;20221;-75
2023/06/16 07:30:16;;;;;;;6.75;6.03;;;18.10;1.00;;;;;;5044094;28;20201;-75
2023/06/16 07:32:42;;;;;;;7.05;6.35;;;17.70;1.00;;;;;;5043717;28;20178;-73
2023/06/16 07:35:08;;;;;;;6.35;5.75;;;17.70;1.00;;;;;;5044139;28;20179;-74
2023/06/16 07:37:34;;;;;;;6.47;5.85;;;17.60;1.00;;;;;;5043742;28;20178;-75
2023/06/16 07:39:59;;;;;;;6.50;5.90;;;17.70;1.00;;;;;;5044150;28;20182;-75
2023/06/16 07:42:25;;;;;;;6.53;6.03;;;17.70;1.00;;;;;;5042069;28;20190;-74
2023/06/16 07:44:52;;;;;;;6.65;6.05;;;17.70;9.50;;;;;;5043678;28;20196;-77
2023/06/16 07:47:17;;;;;;;10.18;6.50;;;17.90;1.00;;;;;;5044072;28;20194;-76
2023/06/16 07:49:43;;;;;;;8.55;6.55;;;18.10;1.00;;;;;;5044137;28;20252;-76
2023/06/16 07:52:11;;;;;;;7.35;6.50;;;18.30;1.00;;;;;;5042889;28;20559;-73
2023/06/16 07:54:37;;;;;;;7.05;5.68;;;18.70;1.00;;;;;;5043883;28;20183;-74
2023/06/16 07:57:03;;;;;;;6.82;5.40;;;18.90;1.00;;;;;;5043264;28;20283;-73
2023/06/16 07:59:28;;;;;;;6.22;5.00;;;19.50;1.00;;;;;;5043935;28;20285;-73
2023/06/16 08:01:54;;;;;;;5.55;5.10;;;19.90;1.00;;;;;;5042874;28;20581;-74
2023/06/16 08:04:20;;;;;;;6.07;5.45;;;20.10;1.00;;;;;;5043930;28;20174;-76
2023/06/16 08:06:45;;;;;;;6.25;5.50;;;20.20;1.00;;;;;;5043591;28;20217;-73
2023/06/16 08:09:11;;;;;;;6.72;4.80;;;20.20;1.00;;;;;;5043841;28;20243;-73
2023/06/16 08:11:37;;;;;;;6.05;4.82;;;20.10;1.00;;;;;;5043514;28;20654;-75
2023/06/16 08:14:03;;;;;;;6.10;5.20;;;19.50;1.00;;;;;;5042747;28;20197;-72
2023/06/16 08:16:28;;;;;;;5.50;5.00;;;19.40;1.00;;;;;;5043495;28;20202;-72
2023/06/16 08:18:59;;;;;;;6.00;5.05;;;19.50;1.00;;;;;;5043020;28;20571;-73
2023/06/16 08:21:25;;;;;;;4.90;4.38;;;19.70;1.00;;;;;;5043315;28;20285;-74
2023/06/16 08:23:52;;;;;;;4.95;4.53;;;19.80;1.00;;;;;;5042539;28;20269;-72
2023/06/16 08:26:18;;;;;;;5.43;4.95;;;19.90;1.00;;;;;;5043468;28;20333;-72
2023/06/16 08:28:44;;;;;;;5.50;5.00;;;19.50;1.00;;;;;;5043502;28;20209;-74
2023/06/16 08:31:10;;;;;;;5.63;5.00;;;19.30;1.00;;;;;;5043059;28;20287;-74
2023/06/16 08:33:36;;;;;;;5.45;4.95;;;19.00;1.00;;;;;;5042763;28;20190;-72
2023/06/16 08:36:02;;;;;;;5.93;5.22;;;18.80;1.00;;;;;;5042966;28;20213;-72
2023/06/16 08:38:27;;;;;;;5.45;4.95;;;18.70;1.00;;;;;;5043387;28;20321;-73
2023/06/16 08:40:53;;;;;;;6.13;5.47;;;18.50;1.00;;;;;;5043117;28;20764;-71
2023/06/16 08:43:22;;;;;;;5.13;4.63;;;18.50;1.00;;;;;;5042587;28;20205;-72
2023/06/16 08:45:50;;;;;;;5.93;5.43;;;18.70;1.00;;;;;;5042751;28;20268;-72
2023/06/16 08:48:16;;;;;;;5.97;5.20;;;18.60;1.00;;;;;;5043138;28;20187;-73
2023/06/16 08:50:41;;;;;;;5.97;5.47;;;18.80;1.00;;;;;;5043508;28;20201;-75
2023/06/16 08:53:10;;;;;;;6.05;5.35;;;18.80;1.00;;;;;;5042050;28;20179;-72
2023/06/16 08:55:40;;;;;;;5.80;5.30;;;18.70;1.00;;;;;;5046415;28;20270;-73
2023/06/16 08:58:08;;;;;;;5.97;5.43;;;18.50;1.00;;;;;;5046110;28;20202;-74
2023/06/16 09:00:34;;;;;;;5.60;5.10;;;18.70;1.00;;;;;;5046789;28;20187;-73
2023/06/16 09:03:00;;;;;;;5.18;4.70;;;19.10;1.00;;;;;;5045878;28;20186;-74
2023/06/16 09:05:26;;;;;;;5.65;5.15;;;19.20;1.00;;;;;;5046490;28;20198;-75
2023/06/16 09:07:52;;;;;;;5.75;5.25;;;19.40;1.00;;;;;;5045778;28;20182;-74
2023/06/16 09:10:18;;;;;;;4.88;4.47;;;19.50;1.00;;;;;;5046561;28;20183;-73
2023/06/16 09:12:50;;;;;;;5.03;4.57;;;19.60;1.00;;;;;;5045812;28;20229;-75
2023/06/16 09:15:15;;;;;;;5.75;5.18;;;19.70;1.00;;;;;;5046223;28;20178;-75
2023/06/16 09:17:41;;;;;;;5.75;4.70;;;19.50;1.00;;;;;;5046230;28;20178;-73
2023/06/16 09:20:15;;;;;;;5.53;4.95;;;19.60;1.00;;;;;;5046310;28;20178;-75
2023/06/16 09:22:41;;;;;;;4.85;4.45;;;19.40;1.00;;;;;;5045946;28;20178;-74
2023/06/16 09:25:11;;;;;;;5.28;4.72;;;19.50;1.00;;;;;;5046058;28;20527;-76
2023/06/16 09:27:50;;;;;;;5.43;4.93;;;19.60;1.00;;;;;;5045841;28;20198;-73
2023/06/16 09:30:18;;;;;;;4.95;4.40;;;19.70;1.00;;;;;;5046177;28;20178;-75
2023/06/16 09:32:48;;;;;;;6.25;4.50;;;19.70;1.00;;;;;;5045748;28;20542;-72
2023/06/16 09:35:18;;;;;;;4.50;4.10;;;20.10;1.00;;;;;;5044969;28;20182;-73
2023/06/16 09:37:44;;;;;;;4.90;4.03;;;20.30;1.00;;;;;;5045835;28;20185;-76
2023/06/16 09:40:11;;;;;;;5.32;4.28;;;20.50;1.00;;;;;;5045840;28;20175;-74
2023/06/16 09:42:40;;;;;;;4.82;4.30;;;20.70;1.00;;;;;;5045230;28;20221;-75
2023/06/16 09:45:14;;;;;;;5.30;4.80;;;20.90;1.00;;;;;;5045907;28;20174;-73
2023/06/16 09:47:49;;;;;;;6.22;4.30;;;21.10;1.00;;;;;;5044857;28;20233;-74
2023/06/16 09:50:16;;;;;;;4.78;4.43;;;21.30;1.00;;;;;;5045707;28;20192;-75
2023/06/16 09:52:47;;;;;;;5.10;4.70;;;21.70;1.00;;;;;;5044936;28;20186;-75
2023/06/16 09:55:13;;;;;;;4.78;4.28;;;22.00;1.00;;;;;;5045883;28;20175;-73
2023/06/16 09:57:41;;;;;;;5.95;4.65;;;22.40;1.00;;;;;;5045258;28;20170;-72
2023/06/16 10:00:11;;;;;;;5.22;4.30;;;22.40;1.00;;;;;;5045498;28;20182;-75
2023/06/16 10:02:39;;;;;;;4.60;4.20;;;22.60;1.00;;;;;;5043114;28;20182;-74
2023/06/16 10:05:09;;;;;;;4.25;3.95;;;22.40;1.00;;;;;;5043224;28;20269;-74
2023/06/16 10:07:39;;;;;;;3.92;3.63;;;22.30;1.00;;;;;;5045127;28;20174;-73
2023/06/16 10:10:10;;;;;;;4.70;3.70;;;22.40;1.00;;;;;;5045525;28;20572;-72
2023/06/16 10:12:37;;;;;;;4.68;3.88;;;22.20;1.00;;;;;;5044776;28;20170;-73
2023/06/16 10:15:03;;;;;;;4.25;3.78;;;22.20;1.00;;;;;;5045622;28;20186;-73
2023/06/16 10:17:32;;;;;;;4.22;3.78;;;22.10;1.00;;;;;;5044302;28;20174;-69
2023/06/16 10:20:02;;;;;;;4.20;3.78;;;21.70;1.00;;;;;;5044325;28;20725;-74
2023/06/16 10:22:28;;;;;;;3.80;3.50;;;21.70;1.00;;;;;;5042577;28;20183;-73
2023/06/16 10:24:54;;;;;;;3.28;3.08;;;21.80;1.00;;;;;;5045298;28;20611;-76
2023/06/16 10:27:21;;;;;;;4.20;3.70;;;22.00;1.00;;;;;;5044327;28;20210;-71
2023/06/16 10:29:48;;;;;;;3.75;3.45;;;22.20;1.00;;;;;;5042055;28;20759;-73
2023/06/16 10:32:13;;;;;;;4.72;3.70;;;21.80;1.00;;;;;;5043794;28;20190;-71
2023/06/16 10:34:51;;;;;;;3.50;3.20;;;22.00;1.00;;;;;;5044722;28;20189;-72
2023/06/16 10:37:21;;;;;;;5.13;3.50;;;22.40;1.00;;;;;;5044398;28;20198;-72
2023/06/16 10:39:46;;;;;;;4.95;3.17;;;22.60;1.00;;;;;;5026647;28;20209;-69
2023/06/16 10:42:13;;;;;;;4.45;3.35;;;22.70;1.00;;;;;;5043817;28;20668;-71
2023/06/16 10:44:40;;;;;;;5.70;3.50;;;22.40;1.00;;;;;;5044833;28;20640;-70
2023/06/16 10:47:08;;;;;;;3.67;3.08;;;22.80;1.00;;;;;;5044548;28;20197;-70
2023/06/16 10:49:49;;;;;;;4.32;2.90;;;22.80;1.00;;;;;;5044884;28;20276;-69
2023/06/16 10:52:27;;;;;;;3.67;3.10;;;23.10;1.00;;;;;;5044159;28;20201;-69
2023/06/16 10:54:55;;;;;;;3.58;3.28;;;23.20;1.00;;;;;;5044907;28;20676;-70
2023/06/16 10:57:27;;;;;;;3.33;3.03;;;23.20;1.00;;;;;;5044140;28;20246;-70
2023/06/16 11:00:11;;;;;;;5.05;3.40;;;22.60;1.00;;;;;;5044456;28;20252;-68
2023/06/16 11:02:46;;;;;;;3.40;3.10;;;22.70;1.00;;;;;;5041273;28;20174;-70
2023/06/16 11:05:13;;;;;;;4.38;3.90;;;23.20;1.00;;;;;;5039766;28;20186;-71
2023/06/16 11:07:43;;;;;;;12.77;4.13;;;23.40;1.00;;;;;;5043156;28;20231;-70
2023/06/16 11:10:18;;;;;;;4.38;3.63;;;23.20;1.00;;;;;;5043672;28;20530;-71
2023/06/16 11:12:45;;;;;;;15.63;4.93;;;23.00;1.00;;;;;;5043261;28;20236;-70
2023/06/16 11:15:11;;;;;;;9.70;4.55;;;23.10;1.00;;;;;;5043615;28;20190;-71
2023/06/16 11:17:36;;;;;;;6.88;3.88;;;23.10;1.00;;;;;;5042996;28;20185;-71
2023/06/16 11:20:06;;;;;;;4.63;3.47;;;23.10;1.00;;;;;;5044288;28;20654;-73
2023/06/16 11:22:33;;;;;;;6.65;3.92;;;23.00;1.00;;;;;;5043429;28;20193;-71
2023/06/16 11:24:59;;;;;;;6.85;3.95;;;22.60;1.00;;;;;;5043596;28;20190;-70
2023/06/16 11:27:25;;;;;;;3.92;3.55;;;22.70;1.00;;;;;;5043645;28;20746;-70
2023/06/16 11:29:53;;;;;;;4.13;3.67;;;22.80;1.00;;;;;;5043973;28;20182;-71
2023/06/16 11:32:26;;;;;;;5.40;3.70;;;22.60;1.00;;;;;;5042883;28;20518;-71
2023/06/16 11:34:56;;;;;;;4.00;3.60;;;22.50;1.00;;;;;;5043606;28;20188;-71
2023/06/16 11:37:38;;;;;;;6.35;4.00;;;22.40;1.00;;;;;;5042549;28;20348;-71
2023/06/16 11:40:05;;;;;;;5.90;3.63;;;22.70;1.00;;;;;;5043809;28;20195;-70
2023/06/16 11:42:32;;;;;;;4.22;3.55;;;23.00;1.00;;;;;;5042910;28;20691;-69
2023/06/16 11:44:58;;;;;;;4.80;3.80;;;23.10;1.00;;;;;;5042855;28;20190;-71
2023/06/16 11:47:24;;;;;;;4.20;3.80;;;23.30;1.00;;;;;;5043008;28;20208;-70
2023/06/16 11:49:51;;;;;;;4.00;3.58;;;23.50;1.00;;;;;;5026514;28;20181;-71
2023/06/16 11:52:17;;;;;;;3.80;3.50;;;23.40;1.00;;;;;;5043128;28;20197;-70
2023/06/16 11:54:43;;;;;;;6.53;3.85;;;23.30;1.00;;;;;;5043992;28;20534;-71
2023/06/16 11:57:09;;;;;;;4.80;4.40;;;23.40;1.00;;;;;;5043294;28;20190;-72
2023/06/16 11:59:36;;;;;;;5.15;4.35;;;23.40;1.00;;;;;;5041273;28;20206;-71
2023/06/16 12:02:03;;;;;;;4.80;4.38;;;23.40;1.00;;;;;;5042157;28;20188;-70
2023/06/16 12:04:31;;;;;;;5.35;4.47;;;23.40;1.00;;;;;;5043078;28;20177;-70
2023/06/16 12:06:57;;;;;;;5.10;4.30;;;23.40;1.00;;;;;;5041373;28;20194;-71
2023/06/16 12:09:35;;;;;;;5.68;4.57;;;23.30;1.00;;;;;;5040125;28;20186;-71
2023/06/16 12:12:03;;;;;;;6.50;4.53;;;23.00;1.00;;;;;;5042400;28;20272;-72
2023/06/16 12:14:28;;;;;;;6.05;4.47;;;22.90;1.00;;;;;;5042318;28;20193;-71
2023/06/16 12:16:56;;;;;;;5.03;4.40;;;22.60;1.00;;;;;;5042234;28;20206;-71
2023/06/16 12:19:22;;;;;;;6.78;5.80;;;22.40;1.00;;;;;;5043200;28;20201;-71
2023/06/16 12:21:54;;;;;;;5.53;5.03;;;22.30;1.00;;;;;;5043045;28;20189;-70
2023/06/16 12:24:22;;;;;;;5.80;5.22;;;22.30;1.00;;;;;;5042549;28;20209;-71
2023/06/16 12:26:52;;;;;;;6.35;5.13;;;22.10;1.00;;;;;;5042859;28;20218;-70
2023/06/16 12:29:18;;;;;;;5.80;4.70;;;21.80;1.00;;;;;;5044439;28;20216;-70
2023/06/16 12:31:51;;;;;;;5.80;5.30;;;21.70;1.00;;;;;;5047200;28;20190;-70
2023/06/16 12:34:33;;;;;;;5.50;5.00;;;21.70;1.00;;;;;;5046627;28;20179;-75
2023/06/16 12:37:10;;;;;;;7.32;5.47;;;21.70;1.00;;;;;;5046423;28;20212;-76
2023/06/16 12:39:37;;;;;;;8.65;5.15;;;21.80;1.00;;;;;;5045634;28;20205;-74
2023/06/16 12:42:05;;;;;;;5.65;5.13;;;21.80;1.00;;;;;;5046316;28;20641;-74
2023/06/16 12:44:41;;;;;;;5.72;5.20;;;21.90;1.00;;;;;;5043135;28;20183;-76
2023/06/16 12:47:06;;;;;;;6.85;6.30;;;22.00;1.00;;;;;;5044867;28;20253;-77
2023/06/16 12:49:32;;;;;;;6.03;5.45;;;21.90;1.00;;;;;;5046892;28;21185;-74
2023/06/16 12:51:58;;;;;;;6.05;5.45;;;22.10;1.00;;;;;;5045317;28;20303;-74
2023/06/16 12:54:23;;;;;;;5.82;5.32;;;22.00;1.00;;;;;;5046074;28;20225;-75
2023/06/16 12:56:49;;;;;;;5.75;5.20;;;22.10;1.00;;;;;;5045673;28;20741;-76
2023/06/16 12:59:15;;;;;;;6.75;6.10;;;22.20;1.00;;;;;;5046054;28;20230;-74
2023/06/16 13:01:41;;;;;;;6.95;5.65;;;22.20;1.00;;;;;;5046492;28;20182;-75
2023/06/16 13:04:07;;;;;;;6.15;5.10;;;22.10;1.00;;;;;;5045923;28;20175;-74
2023/06/16 13:06:33;;;;;;;6.28;5.15;;;22.20;1.00;;;;;;5028734;28;20195;-75
2023/06/16 13:08:58;;;;;;;5.45;4.85;;;22.20;1.00;;;;;;5045792;28;20649;-74